Time;durP1;ratioP1;P1;durP2;ratioP2;P2;SDS_P1;SDS_P2;PMS_P1;PMS_P2;Temp;Humidity;BMP_temperature;BMP_pressure;BME280_temperature;BME280_humidity;BME280_pressure;Samples;Min_cycle;Max_cycle;Signal;HPM_P1;HPM_P2
2023/06/11 00:02:24;;;;;;;;;;;;;;;24.43;nan;102120.09;4989337;28;19917;-81
2023/06/11 00:04:49;;;;;;;;;;;;;;;24.35;nan;102122.44;4986287;28;20507;-81
2023/06/11 00:07:15;;;;;;;;;;;;;;;24.31;nan;102126.09;4979798;28;19918;-81
2023/06/11 00:09:40;;;;;;;;;;;;;;;24.23;nan;102124.84;4987683;28;20015;-82
2023/06/11 00:12:06;;;;;;;;;;;;;;;24.14;nan;102113.00;4983308;28;20386;-81
2023/06/11 00:14:32;;;;;;;;;;;;;;;24.08;nan;102114.25;4988175;28;19929;-81
2023/06/11 00:16:57;;;;;;;;;;;;;;;24.04;nan;102118.69;4989185;28;19921;-81
2023/06/11 00:19:22;;;;;;;;;;;;;;;23.99;nan;102121.53;4981632;28;19918;-82
2023/06/11 00:21:48;;;;;;;;;;;;;;;23.93;nan;102112.63;4987359;28;19965;-81
2023/06/11 00:24:14;;;;;;;;;;;;;;;23.91;nan;102119.53;4989833;28;20366;-81
2023/06/11 00:26:40;;;;;;;;;;;;;;;23.85;nan;102115.25;4989429;28;19924;-81
2023/06/11 00:29:06;;;;;;;;;;;;;;;23.79;nan;102126.31;4989181;28;20366;-81
2023/06/11 00:31:31;;;;;;;;;;;;;;;23.73;nan;102116.59;4989821;28;19929;-81
2023/06/11 00:33:56;;;;;;;;;;;;;;;23.59;nan;102114.94;4986890;28;20390;-81
2023/06/11 00:36:21;;;;;;;;;;;;;;;23.43;nan;102119.88;4989891;28;20597;-81
2023/06/11 00:38:48;;;;;;;;;;;;;;;23.35;nan;102126.03;4986272;28;19922;-81
2023/06/11 00:41:14;;;;;;;;;;;;;;;23.29;nan;102119.03;4984617;28;19921;-81
2023/06/11 00:43:39;;;;;;;;;;;;;;;23.25;nan;102126.22;4987244;28;20403;-82
2023/06/11 00:46:10;;;;;;;;;;;;;;;23.21;nan;102123.28;5003982;28;19976;-81
2023/06/11 00:48:36;;;;;;;;;;;;;;;23.16;nan;102126.06;4989912;28;20050;-81
2023/06/11 00:51:01;;;;;;;;;;;;;;;23.08;nan;102122.09;5000453;28;20377;-81
2023/06/11 00:53:26;;;;;;;;;;;;;;;23.01;nan;102124.44;4988683;28;20005;-81
2023/06/11 00:55:52;;;;;;;;;;;;;;;22.94;nan;102123.97;4988750;28;19922;-81
2023/06/11 00:58:17;;;;;;;;;;;;;;;22.90;nan;102122.97;4988920;28;20016;-81
2023/06/11 01:00:45;;;;;;;;;;;;;;;22.87;nan;102129.84;4986476;28;20420;-81
2023/06/11 01:03:17;;;;;;;;;;;;;;;22.84;nan;102124.16;4988638;28;20024;-81
2023/06/11 01:06:04;;;;;;;;;;;;;;;22.79;nan;102129.66;4988673;28;19918;-81
2023/06/11 01:08:34;;;;;;;;;;;;;;;22.72;nan;102124.56;4983888;28;19924;-81
2023/06/11 01:11:01;;;;;;;;;;;;;;;22.64;nan;102122.53;4985843;28;20400;-81
2023/06/11 01:13:27;;;;;;;;;;;;;;;22.60;nan;102116.00;4990835;28;19944;-81
2023/06/11 01:15:55;;;;;;;;;;;;;;;22.55;nan;102114.16;4989852;28;20408;-81
2023/06/11 01:18:23;;;;;;;;;;;;;;;22.52;nan;102120.22;4983560;28;19918;-81
2023/06/11 01:20:54;;;;;;;;;;;;;;;22.48;nan;102121.13;4984125;28;19926;-81
2023/06/11 01:23:20;;;;;;;;;;;;;;;22.44;nan;102123.63;4985072;28;19944;-81
2023/06/11 01:26:04;;;;;;;;;;;;;;;22.38;nan;102124.78;4984009;28;20012;-80
2023/06/11 01:28:31;;;;;;;;;;;;;;;22.29;nan;102121.09;4982137;28;19922;-81
2023/06/11 01:31:00;;;;;;;;;;;;;;;22.23;nan;102119.53;4987105;28;20563;-80
2023/06/11 01:33:26;;;;;;;;;;;;;;;22.19;nan;102135.69;4985445;28;19918;-81
2023/06/11 01:35:57;;;;;;;;;;;;;;;22.15;nan;102134.66;4984476;28;19921;-81
2023/06/11 01:38:23;;;;;;;;;;;;;;;22.12;nan;102135.25;4982407;28;19918;-81
2023/06/11 01:40:48;;;;;;;;;;;;;;;22.10;nan;102139.38;4985047;28;19937;-81
2023/06/11 01:43:13;;;;;;;;;;;;;;;22.08;nan;102138.81;4983619;28;19925;-81
2023/06/11 01:45:39;;;;;;;;;;;;;;;22.03;nan;102135.03;4978768;28;21014;-81
2023/06/11 01:48:04;;;;;;;;;;;;;;;21.96;nan;102142.78;4980254;28;19917;-81
2023/06/11 01:50:30;;;;;;;;;;;;;;;21.87;nan;102144.50;4983951;28;19953;-81
2023/06/11 01:52:55;;;;;;;;;;;;;;;21.82;nan;102144.56;4979887;28;19917;-81
2023/06/11 01:55:20;;;;;;;;;;;;;;;21.79;nan;102145.16;4981361;28;20497;-81
2023/06/11 01:57:46;;;;;;;;;;;;;;;21.75;nan;102146.84;4977035;28;19924;-81
2023/06/11 02:00:12;;;;;;;;;;;;;;;21.76;nan;102147.66;4982167;28;20008;-81
2023/06/11 02:02:38;;;;;;;;;;;;;;;21.74;nan;102144.41;4982354;28;19930;-81
2023/06/11 02:05:03;;;;;;;;;;;;;;;21.70;nan;102134.03;4979370;28;20406;-81
2023/06/11 02:07:29;;;;;;;;;;;;;;;21.67;nan;102142.00;4984611;28;19918;-81
2023/06/11 02:09:54;;;;;;;;;;;;;;;21.63;nan;102149.13;4982573;28;20369;-81
2023/06/11 02:12:20;;;;;;;;;;;;;;;21.57;nan;102150.31;4977755;28;19956;-82
2023/06/11 02:14:45;;;;;;;;;;;;;;;21.52;nan;102148.41;4980085;28;19950;-81
2023/06/11 02:17:10;;;;;;;;;;;;;;;21.48;nan;102152.00;4980189;28;20310;-82
2023/06/11 02:19:35;;;;;;;;;;;;;;;21.45;nan;102153.41;4983568;28;20390;-82
2023/06/11 02:22:01;;;;;;;;;;;;;;;21.45;nan;102152.59;4984742;28;19948;-82
2023/06/11 02:24:26;;;;;;;;;;;;;;;21.45;nan;102149.88;4987750;28;19922;-82
2023/06/11 02:26:51;;;;;;;;;;;;;;;21.41;nan;102152.34;4983099;28;19932;-82
2023/06/11 02:29:17;;;;;;;;;;;;;;;21.38;nan;102158.38;4980969;28;19918;-82
2023/06/11 02:31:42;;;;;;;;;;;;;;;21.29;nan;102152.72;4984105;28;19922;-82
2023/06/11 02:34:07;;;;;;;;;;;;;;;21.21;nan;102168.88;4984086;28;19963;-82
2023/06/11 02:36:33;;;;;;;;;;;;;;;21.10;nan;102157.22;4998165;28;20291;-81
2023/06/11 02:38:58;;;;;;;;;;;;;;;21.05;nan;102157.28;4982253;28;19924;-81
2023/06/11 02:41:23;;;;;;;;;;;;;;;21.04;nan;102158.38;4983538;28;19928;-82
2023/06/11 02:43:48;;;;;;;;;;;;;;;21.03;nan;102154.03;4981588;28;20275;-81
2023/06/11 02:46:14;;;;;;;;;;;;;;;21.04;nan;102159.19;4982083;28;20444;-82
2023/06/11 02:48:39;;;;;;;;;;;;;;;21.04;nan;102158.38;4983611;28;19992;-82
2023/06/11 02:51:05;;;;;;;;;;;;;;;21.03;nan;102159.47;4988216;28;20008;-81
2023/06/11 02:53:30;;;;;;;;;;;;;;;21.00;nan;102168.19;4991272;28;19961;-84
2023/06/11 02:55:55;;;;;;;;;;;;;;;20.99;nan;102158.38;4985146;28;19914;-81
2023/06/11 02:58:20;;;;;;;;;;;;;;;20.98;nan;102165.75;4988887;28;19925;-82
2023/06/11 03:00:46;;;;;;;;;;;;;;;20.95;nan;102157.34;4986547;28;19954;-81
2023/06/11 03:03:12;;;;;;;;;;;;;;;20.84;nan;102155.78;4987378;28;21025;-81
2023/06/11 03:05:37;;;;;;;;;;;;;;;20.74;nan;102168.38;4987880;28;19918;-82
2023/06/11 03:08:03;;;;;;;;;;;;;;;20.71;nan;102173.56;4988046;28;20400;-81
2023/06/11 03:10:28;;;;;;;;;;;;;;;20.68;nan;102166.78;4988680;28;20008;-81
2023/06/11 03:12:54;;;;;;;;;;;;;;;20.70;nan;102172.75;4991195;28;19988;-81
2023/06/11 03:15:19;;;;;;;;;;;;;;;20.72;nan;102159.66;4989481;28;20381;-81
2023/06/11 03:17:45;;;;;;;;;;;;;;;20.74;nan;102167.56;4986224;28;19918;-82
2023/06/11 03:20:10;;;;;;;;;;;;;;;20.71;nan;102160.78;4988145;28;19941;-82
2023/06/11 03:22:36;;;;;;;;;;;;;;;20.69;nan;102168.41;4985243;28;20389;-82
2023/06/11 03:25:01;;;;;;;;;;;;;;;20.69;nan;102175.75;4984590;28;19933;-82
2023/06/11 03:27:26;;;;;;;;;;;;;;;20.67;nan;102176.06;4981789;28;19922;-82
2023/06/11 03:29:52;;;;;;;;;;;;;;;20.67;nan;102169.78;4988733;28;19992;-82
2023/06/11 03:32:17;;;;;;;;;;;;;;;20.63;nan;102168.69;4987658;28;19917;-82
2023/06/11 03:34:43;;;;;;;;;;;;;;;20.60;nan;102167.34;4987699;28;19922;-82
2023/06/11 03:37:08;;;;;;;;;;;;;;;20.59;nan;102173.09;4998995;28;19918;-81
2023/06/11 03:39:33;;;;;;;;;;;;;;;20.55;nan;102174.75;4983000;28;19940;-81
2023/06/11 03:41:59;;;;;;;;;;;;;;;20.55;nan;102178.28;4985991;28;20410;-81
2023/06/11 03:44:24;;;;;;;;;;;;;;;20.56;nan;102173.66;4986011;28;19970;-81
2023/06/11 03:46:50;;;;;;;;;;;;;;;20.59;nan;102182.06;4986441;28;19922;-81
2023/06/11 03:49:15;;;;;;;;;;;;;;;20.62;nan;102186.94;4985326;28;19932;-82
2023/06/11 03:51:40;;;;;;;;;;;;;;;20.66;nan;102184.50;4987421;28;20337;-81
2023/06/11 03:54:06;;;;;;;;;;;;;;;20.66;nan;102185.31;4988821;28;19918;-82
2023/06/11 03:56:31;;;;;;;;;;;;;;;20.68;nan;102185.03;4990557;28;19944;-82
2023/06/11 03:58:57;;;;;;;;;;;;;;;20.73;nan;102188.53;4989102;28;20943;-81
2023/06/11 04:01:23;;;;;;;;;;;;;;;20.80;nan;102197.19;4985159;28;19926;-81
2023/06/11 04:03:48;;;;;;;;;;;;;;;20.87;nan;102193.38;4984230;28;19969;-81
2023/06/11 04:06:15;;;;;;;;;;;;;;;20.94;nan;102193.84;4989702;28;20767;-81
2023/06/11 04:08:40;;;;;;;;;;;;;;;20.98;nan;102184.81;4986450;28;19922;-81
2023/06/11 04:11:05;;;;;;;;;;;;;;;21.05;nan;102192.69;4986282;28;19925;-81
2023/06/11 04:13:31;;;;;;;;;;;;;;;21.12;nan;102176.81;4985400;28;19922;-82
2023/06/11 04:15:56;;;;;;;;;;;;;;;21.22;nan;102189.56;4988902;28;19972;-82
2023/06/11 04:18:21;;;;;;;;;;;;;;;21.30;nan;102197.97;4988640;28;19922;-82
2023/06/11 04:20:47;;;;;;;;;;;;;;;21.37;nan;102201.19;4986075;28;19918;-82
2023/06/11 04:23:12;;;;;;;;;;;;;;;21.44;nan;102200.88;4988091;28;19933;-81
2023/06/11 04:25:39;;;;;;;;;;;;;;;21.52;nan;102202.16;4989457;28;20378;-81
2023/06/11 04:28:05;;;;;;;;;;;;;;;21.62;nan;102196.59;4989952;28;19928;-82
2023/06/11 04:30:31;;;;;;;;;;;;;;;21.71;nan;102203.06;4987560;28;19957;-82
2023/06/11 04:32:56;;;;;;;;;;;;;;;21.79;nan;102207.09;4986598;28;19926;-81
2023/06/11 04:35:25;;;;;;;;;;;;;;;21.84;nan;102210.56;4989046;28;20409;-81
2023/06/11 04:37:50;;;;;;;;;;;;;;;21.93;nan;102206.13;4985667;28;20378;-81
2023/06/11 04:40:17;;;;;;;;;;;;;;;22.05;nan;102199.47;4985404;28;19928;-82
2023/06/11 04:42:43;;;;;;;;;;;;;;;22.15;nan;102200.16;4987226;28;19921;-81
2023/06/11 04:45:09;;;;;;;;;;;;;;;22.26;nan;102198.97;4985134;28;20416;-82
2023/06/11 04:47:35;;;;;;;;;;;;;;;22.37;nan;102199.63;4984509;28;19925;-82
2023/06/11 04:50:04;;;;;;;;;;;;;;;22.47;nan;102199.50;4988084;28;19925;-82
2023/06/11 04:52:37;;;;;;;;;;;;;;;22.59;nan;102194.41;4993758;28;20001;-82
2023/06/11 04:55:03;;;;;;;;;;;;;;;22.71;nan;102190.44;4992398;28;19922;-81
2023/06/11 04:57:28;;;;;;;;;;;;;;;22.82;nan;102189.22;4997299;28;19925;-81
2023/06/11 04:59:54;;;;;;;;;;;;;;;22.92;nan;102187.13;4994591;28;20416;-82
2023/06/11 05:02:20;;;;;;;;;;;;;;;23.06;nan;102194.59;4989360;28;20016;-82
2023/06/11 05:04:49;;;;;;;;;;;;;;;23.17;nan;102183.22;4993282;28;20008;-81
2023/06/11 05:07:15;;;;;;;;;;;;;;;23.29;nan;102184.66;4991486;28;19937;-82
2023/06/11 05:09:41;;;;;;;;;;;;;;;23.37;nan;102192.19;4987426;28;20132;-82
2023/06/11 05:12:07;;;;;;;;;;;;;;;23.43;nan;102196.44;4989700;28;19922;-81
2023/06/11 05:14:32;;;;;;;;;;;;;;;23.53;nan;102199.03;4990888;28;19917;-82
2023/06/11 05:16:59;;;;;;;;;;;;;;;23.59;nan;102192.38;4989737;28;20394;-81
2023/06/11 05:19:25;;;;;;;;;;;;;;;23.65;nan;102193.88;4991165;28;20409;-82
2023/06/11 05:21:50;;;;;;;;;;;;;;;23.72;nan;102188.84;4985438;28;19922;-82
2023/06/11 05:24:19;;;;;;;;;;;;;;;23.82;nan;102190.56;4986856;28;19932;-82
2023/06/11 05:26:45;;;;;;;;;;;;;;;23.97;nan;102197.69;4984028;28;20040;-82
2023/06/11 05:29:10;;;;;;;;;;;;;;;24.11;nan;102195.78;4988473;28;19993;-82
2023/06/11 05:31:35;;;;;;;;;;;;;;;24.23;nan;102185.09;4986430;28;19918;-82
2023/06/11 05:34:01;;;;;;;;;;;;;;;24.35;nan;102199.13;4990212;28;19924;-81
2023/06/11 05:36:27;;;;;;;;;;;;;;;24.47;nan;102198.59;4986982;28;20449;-82
2023/06/11 05:38:52;;;;;;;;;;;;;;;24.58;nan;102204.66;4988924;28;19922;-82
2023/06/11 05:41:18;;;;;;;;;;;;;;;24.63;nan;102201.81;4989853;28;19925;-82
2023/06/11 05:43:43;;;;;;;;;;;;;;;24.71;nan;102203.81;4985951;28;20428;-82
2023/06/11 05:46:12;;;;;;;;;;;;;;;24.85;nan;102201.88;4985441;28;20135;-82
2023/06/11 05:48:37;;;;;;;;;;;;;;;24.95;nan;102198.88;4992204;28;19921;-82
2023/06/11 05:51:02;;;;;;;;;;;;;;;25.06;nan;102201.41;4995260;28;19972;-82
2023/06/11 05:53:28;;;;;;;;;;;;;;;25.22;nan;102197.19;4987498;28;19960;-81
2023/06/11 05:55:53;;;;;;;;;;;;;;;25.34;nan;102200.19;4986995;28;20262;-82
2023/06/11 05:58:18;;;;;;;;;;;;;;;25.42;nan;102204.09;4986631;28;19918;-81
2023/06/11 06:00:44;;;;;;;;;;;;;;;25.52;nan;102201.91;4987737;28;19929;-82
2023/06/11 06:03:09;;;;;;;;;;;;;;;25.68;nan;102201.53;4992623;28;20492;-82
2023/06/11 06:05:34;;;;;;;;;;;;;;;25.81;nan;102204.16;4991759;28;19917;-82
2023/06/11 06:08:00;;;;;;;;;;;;;;;25.95;nan;102209.56;4996045;28;19964;-82
2023/06/11 06:10:25;;;;;;;;;;;;;;;26.08;nan;102203.16;4985054;28;19921;-82
2023/06/11 06:12:50;;;;;;;;;;;;;;;26.20;nan;102219.81;4981598;28;20393;-82
2023/06/11 06:15:16;;;;;;;;;;;;;;;26.33;nan;102209.03;4985333;28;20274;-82
2023/06/11 06:17:41;;;;;;;;;;;;;;;26.44;nan;102213.16;4980302;28;20858;-82
2023/06/11 06:20:08;;;;;;;;;;;;;;;26.55;nan;102206.19;4981434;28;20487;-81
2023/06/11 06:22:34;;;;;;;;;;;;;;;26.67;nan;102211.88;4983806;28;19917;-82
2023/06/11 06:24:59;;;;;;;;;;;;;;;26.79;nan;102214.00;4993843;28;19924;-81
2023/06/11 06:27:24;;;;;;;;;;;;;;;26.89;nan;102215.59;4989290;28;19921;-81
2023/06/11 06:29:50;;;;;;;;;;;;;;;27.00;nan;102216.94;4992577;28;19917;-82
2023/06/11 06:32:15;;;;;;;;;;;;;;;27.05;nan;102208.50;4988684;28;19948;-82
2023/06/11 06:34:40;;;;;;;;;;;;;;;27.15;nan;102213.69;4984689;28;20016;-82
2023/06/11 06:37:06;;;;;;;;;;;;;;;27.27;nan;102202.81;4987434;28;19918;-82
2023/06/11 06:39:31;;;;;;;;;;;;;;;27.42;nan;102201.50;4982497;28;20352;-82
2023/06/11 06:41:57;;;;;;;;;;;;;;;27.57;nan;102203.72;4988997;28;20013;-82
2023/06/11 06:44:22;;;;;;;;;;;;;;;27.64;nan;102203.25;4986958;28;20019;-82
2023/06/11 06:46:48;;;;;;;;;;;;;;;27.72;nan;102209.88;4986029;28;19921;-82
2023/06/11 06:49:14;;;;;;;;;;;;;;;27.77;nan;102206.94;4983293;28;19918;-82
2023/06/11 06:51:39;;;;;;;;;;;;;;;27.86;nan;102200.28;4985164;28;19951;-82
2023/06/11 06:54:04;;;;;;;;;;;;;;;27.99;nan;102199.22;4983693;28;19918;-83
2023/06/11 06:56:30;;;;;;;;;;;;;;;28.09;nan;102197.25;4985700;28;20395;-82
2023/06/11 06:58:55;;;;;;;;;;;;;;;28.22;nan;102202.53;4984184;28;20377;-82
2023/06/11 07:01:20;;;;;;;;;;;;;;;28.22;nan;102201.72;4985957;28;20455;-82
2023/06/11 07:03:46;;;;;;;;;;;;;;;28.28;nan;102200.41;4988186;28;19926;-82
2023/06/11 07:06:11;;;;;;;;;;;;;;;28.40;nan;102203.25;4986649;28;19925;-82
2023/06/11 07:08:37;;;;;;;;;;;;;;;28.56;nan;102209.00;4989881;28;20293;-82
2023/06/11 07:11:03;;;;;;;;;;;;;;;28.68;nan;102206.28;4988530;28;20012;-81
2023/06/11 07:13:28;;;;;;;;;;;;;;;28.84;nan;102212.00;4988565;28;20005;-82
2023/06/11 07:15:53;;;;;;;;;;;;;;;28.99;nan;102211.44;4992000;28;19917;-82
2023/06/11 07:18:19;;;;;;;;;;;;;;;29.12;nan;102212.28;4986876;28;20572;-81
2023/06/11 07:20:44;;;;;;;;;;;;;;;29.25;nan;102204.84;4989135;28;19926;-81
2023/06/11 07:23:10;;;;;;;;;;;;;;;29.33;nan;102206.72;4988968;28;19968;-81
2023/06/11 07:25:37;;;;;;;;;;;;;;;29.40;nan;102201.44;4985002;28;19918;-81
2023/06/11 07:28:03;;;;;;;;;;;;;;;29.52;nan;102196.00;4989280;28;20016;-81
2023/06/11 07:30:29;;;;;;;;;;;;;;;29.64;nan;102196.03;4990325;28;20447;-82
2023/06/11 07:32:55;;;;;;;;;;;;;;;29.73;nan;102195.91;4987420;28;19922;-81
2023/06/11 07:35:20;;;;;;;;;;;;;;;29.76;nan;102193.25;4983050;28;20416;-82
2023/06/11 07:37:46;;;;;;;;;;;;;;;29.74;nan;102206.59;4992213;28;19976;-82
2023/06/11 07:40:12;;;;;;;;;;;;;;;29.83;nan;102197.41;4990917;28;19926;-81
2023/06/11 07:42:37;;;;;;;;;;;;;;;29.95;nan;102200.97;4989217;28;19918;-81
2023/06/11 07:45:03;;;;;;;;;;;;;;;30.11;nan;102198.34;4989737;28;19921;-82
2023/06/11 07:47:28;;;;;;;;;;;;;;;30.24;nan;102208.25;4986807;28;20394;-82
2023/06/11 07:49:54;;;;;;;;;;;;;;;30.32;nan;102207.31;4990357;28;20068;-82
2023/06/11 07:52:20;;;;;;;;;;;;;;;30.44;nan;102205.69;4990565;28;19926;-81
2023/06/11 07:54:45;;;;;;;;;;;;;;;30.53;nan;102209.16;4986661;28;19925;-81
2023/06/11 07:57:12;;;;;;;;;;;;;;;30.62;nan;102207.88;4989795;28;19922;-82
2023/06/11 07:59:40;;;;;;;;;;;;;;;30.77;nan;102205.53;4990673;28;19918;-82
2023/06/11 08:02:06;;;;;;;;;;;;;;;30.93;nan;102201.69;4991657;28;20357;-81
2023/06/11 08:04:32;;;;;;;;;;;;;;;30.97;nan;102208.09;4986873;28;19967;-82
2023/06/11 08:06:57;;;;;;;;;;;;;;;31.07;nan;102192.16;4988199;28;19924;-82
2023/06/11 08:09:22;;;;;;;;;;;;;;;31.23;nan;102201.31;4985029;28;19926;-82
2023/06/11 08:11:48;;;;;;;;;;;;;;;31.40;nan;102198.22;4990946;28;19965;-82
2023/06/11 08:14:13;;;;;;;;;;;;;;;31.54;nan;102189.50;4989539;28;19963;-81
2023/06/11 08:16:39;;;;;;;;;;;;;;;31.58;nan;102196.72;4983451;28;19925;-82
2023/06/11 08:19:04;;;;;;;;;;;;;;;31.64;nan;102202.03;4990602;28;19925;-82
2023/06/11 08:21:29;;;;;;;;;;;;;;;31.73;nan;102194.34;4985977;28;20539;-82
2023/06/11 08:23:56;;;;;;;;;;;;;;;31.80;nan;102195.34;4986586;28;20393;-81
2023/06/11 08:26:21;;;;;;;;;;;;;;;31.86;nan;102195.88;4985945;28;19921;-82
2023/06/11 08:28:47;;;;;;;;;;;;;;;31.99;nan;102196.59;4987852;28;19929;-82
2023/06/11 08:31:12;;;;;;;;;;;;;;;32.14;nan;102187.44;4989387;28;19918;-82
2023/06/11 08:33:38;;;;;;;;;;;;;;;32.33;nan;102181.16;4986798;28;20005;-83
2023/06/11 08:36:03;;;;;;;;;;;;;;;32.52;nan;102183.97;4987415;28;19949;-83
2023/06/11 08:38:28;;;;;;;;;;;;;;;32.64;nan;102189.34;4986595;28;19918;-83
2023/06/11 08:40:54;;;;;;;;;;;;;;;32.72;nan;102182.78;4984787;28;20297;-83
2023/06/11 08:43:19;;;;;;;;;;;;;;;32.80;nan;102177.38;4988566;28;19926;-82
2023/06/11 08:45:45;;;;;;;;;;;;;;;32.89;nan;102184.34;4988600;28;19929;-82
2023/06/11 08:48:11;;;;;;;;;;;;;;;33.02;nan;102171.09;4986282;28;19918;-81
2023/06/11 08:50:37;;;;;;;;;;;;;;;33.20;nan;102171.44;4983663;28;19918;-81
2023/06/11 08:53:03;;;;;;;;;;;;;;;33.34;nan;102166.97;4987376;28;19983;-81
2023/06/11 08:55:29;;;;;;;;;;;;;;;33.50;nan;102169.63;4990256;28;20374;-82
2023/06/11 08:57:54;;;;;;;;;;;;;;;33.60;nan;102162.66;4988240;28;19922;-81
2023/06/11 09:00:21;;;;;;;;;;;;;;;33.69;nan;102163.19;4989990;28;19925;-82
2023/06/11 09:02:46;;;;;;;;;;;;;;;33.72;nan;102164.41;4981076;28;19930;-81
2023/06/11 09:05:12;;;;;;;;;;;;;;;33.79;nan;102154.22;4992263;28;19921;-81
2023/06/11 09:07:37;;;;;;;;;;;;;;;33.82;nan;102158.25;4992933;28;19925;-83
2023/06/11 09:10:06;;;;;;;;;;;;;;;33.90;nan;102160.78;4992495;28;19924;-82
2023/06/11 09:12:32;;;;;;;;;;;;;;;34.03;nan;102158.59;4987052;28;20509;-80
2023/06/11 09:14:57;;;;;;;;;;;;;;;34.03;nan;102158.59;4987700;28;19921;-81
2023/06/11 09:17:22;;;;;;;;;;;;;;;34.15;nan;102149.22;4992816;28;19918;-81
2023/06/11 09:19:48;;;;;;;;;;;;;;;34.25;nan;102143.00;4987270;28;19918;-83
2023/06/11 09:22:13;;;;;;;;;;;;;;;34.37;nan;102148.34;4987095;28;19965;-83
2023/06/11 09:24:39;;;;;;;;;;;;;;;34.49;nan;102152.91;4989045;28;19922;-79
2023/06/11 09:27:05;;;;;;;;;;;;;;;34.61;nan;102157.38;4984797;28;19934;-81
2023/06/11 09:29:31;;;;;;;;;;;;;;;34.76;nan;102154.41;4987117;28;20005;-82
2023/06/11 09:32:03;;;;;;;;;;;;;;;34.92;nan;102148.63;4987611;28;20009;-82
2023/06/11 09:34:28;;;;;;;;;;;;;;;35.06;nan;102143.22;4985249;28;19921;-84
2023/06/11 09:36:54;;;;;;;;;;;;;;;35.17;nan;102140.53;4988129;28;20363;-82
2023/06/11 09:39:19;;;;;;;;;;;;;;;35.29;nan;102147.81;4980967;28;19921;-82
2023/06/11 09:41:51;;;;;;;;;;;;;;;35.43;nan;102142.41;4984203;28;19921;-82
2023/06/11 09:44:19;;;;;;;;;;;;;;;35.54;nan;102146.06;4985965;28;19961;-83
2023/06/11 09:46:48;;;;;;;;;;;;;;;35.60;nan;102144.53;4981886;28;19922;-82
2023/06/11 09:49:15;;;;;;;;;;;;;;;35.70;nan;102135.41;4990822;28;19965;-82
2023/06/11 09:51:40;;;;;;;;;;;;;;;35.79;nan;102131.50;4985339;28;19996;-82
2023/06/11 09:54:07;;;;;;;;;;;;;;;35.88;nan;102143.94;4990419;28;20017;-83
2023/06/11 09:56:33;;;;;;;;;;;;;;;35.91;nan;102145.16;4977021;28;19983;-82
2023/06/11 09:58:59;;;;;;;;;;;;;;;35.99;nan;102144.81;4985094;28;19917;-83
2023/06/11 10:01:25;;;;;;;;;;;;;;;35.95;nan;102137.63;4978208;28;19932;-87
2023/06/11 10:03:51;;;;;;;;;;;;;;;35.92;nan;102122.47;4985392;28;19948;-85
2023/06/11 10:06:19;;;;;;;;;;;;;;;36.01;nan;102130.47;4985220;28;20505;-86
2023/06/11 10:08:45;;;;;;;;;;;;;;;36.17;nan;102125.38;4975832;28;19928;-84
2023/06/11 10:11:11;;;;;;;;;;;;;;;36.29;nan;102129.84;4978198;28;19925;-82
2023/06/11 10:13:37;;;;;;;;;;;;;;;36.23;nan;102129.38;4981687;28;19976;-83
2023/06/11 10:16:03;;;;;;;;;;;;;;;36.17;nan;102122.59;4980113;28;19926;-81
2023/06/11 10:18:30;;;;;;;;;;;;;;;36.17;nan;102128.19;4980876;28;19922;-82
2023/06/11 10:21:03;;;;;;;;;;;;;;;36.13;nan;102124.56;4988684;28;19960;-82
2023/06/11 10:23:38;;;;;;;;;;;;;;;36.10;nan;102118.97;4981012;28;19968;-83
2023/06/11 10:26:04;;;;;;;;;;;;;;;36.11;nan;102124.16;4975791;28;19930;-83
2023/06/11 10:28:42;;;;;;;;;;;;;;;36.09;nan;102123.75;4980982;28;20329;-83
2023/06/11 10:31:07;;;;;;;;;;;;;;;36.19;nan;102130.56;4983483;28;19929;-83
2023/06/11 10:33:36;;;;;;;;;;;;;;;36.33;nan;102129.88;4985991;28;19922;-84
2023/06/11 10:36:01;;;;;;;;;;;;;;;36.42;nan;102119.94;4984862;28;20020;-83
2023/06/11 10:38:28;;;;;;;;;;;;;;;36.46;nan;102128.34;4982511;28;20020;-83
2023/06/11 10:41:01;;;;;;;;;;;;;;;36.56;nan;102121.97;4979872;28;19956;-83
2023/06/11 10:43:26;;;;;;;;;;;;;;;36.70;nan;102127.63;4983123;28;19925;-83
2023/06/11 10:46:17;;;;;;;;;;;;;;;36.77;nan;102121.22;4978733;28;19926;-84
2023/06/11 10:48:50;;;;;;;;;;;;;;;36.81;nan;102124.88;4976864;28;21728;-84
2023/06/11 10:51:15;;;;;;;;;;;;;;;36.91;nan;102122.09;4980114;28;19922;-84
2023/06/11 10:53:41;;;;;;;;;;;;;;;37.08;nan;102131.69;4981008;28;19948;-82
2023/06/11 10:56:07;;;;;;;;;;;;;;;37.17;nan;102109.78;4982441;28;19991;-82
2023/06/11 10:58:33;;;;;;;;;;;;;;;37.25;nan;102113.34;4979031;28;20402;-83
2023/06/11 11:00:58;;;;;;;;;;;;;;;37.41;nan;102108.19;4981813;28;19929;-85
2023/06/11 11:03:25;;;;;;;;;;;;;;;37.55;nan;102110.19;4985203;28;19979;-83
2023/06/11 11:05:51;;;;;;;;;;;;;;;37.66;nan;102115.75;4979831;28;20254;-85
2023/06/11 11:08:16;;;;;;;;;;;;;;;37.76;nan;102095.38;4979542;28;20386;-84
2023/06/11 11:10:42;;;;;;;;;;;;;;;37.85;nan;102101.34;4983261;28;19926;-82
2023/06/11 11:13:07;;;;;;;;;;;;;;;37.90;nan;102103.75;4989290;28;19956;-82
2023/06/11 11:15:33;;;;;;;;;;;;;;;37.78;nan;102101.38;4981585;28;19922;-82
2023/06/11 11:17:58;;;;;;;;;;;;;;;37.51;nan;102096.19;4988191;28;19924;-81
2023/06/11 11:20:24;;;;;;;;;;;;;;;37.38;nan;102099.81;4983246;28;20164;-83
2023/06/11 11:22:54;;;;;;;;;;;;;;;37.35;nan;102100.63;4988248;28;19928;-84
2023/06/11 11:25:24;;;;;;;;;;;;;;;37.37;nan;102093.44;4983806;28;19929;-83
2023/06/11 11:27:50;;;;;;;;;;;;;;;37.51;nan;102087.78;4985005;28;20408;-81
2023/06/11 11:30:16;;;;;;;;;;;;;;;37.69;nan;102103.75;4986432;28;20099;-82
2023/06/11 11:32:42;;;;;;;;;;;;;;;37.79;nan;102086.19;4984074;28;19917;-82
2023/06/11 11:35:07;;;;;;;;;;;;;;;37.90;nan;102086.97;4986806;28;20404;-81
2023/06/11 11:37:33;;;;;;;;;;;;;;;38.01;nan;102081.31;4982428;28;19926;-84
2023/06/11 11:40:06;;;;;;;;;;;;;;;38.12;nan;102090.47;4982891;28;19921;-83
2023/06/11 11:42:32;;;;;;;;;;;;;;;38.22;nan;102094.44;4982246;28;20432;-85
2023/06/11 11:44:57;;;;;;;;;;;;;;;38.32;nan;102102.00;4986715;28;19929;-83
2023/06/11 11:47:26;;;;;;;;;;;;;;;38.35;nan;102087.19;4988980;28;20527;-85
2023/06/11 11:49:55;;;;;;;;;;;;;;;38.38;nan;102089.19;4985668;28;19928;-85
2023/06/11 11:52:21;;;;;;;;;;;;;;;38.45;nan;102097.56;4980472;28;19969;-85
2023/06/11 11:54:47;;;;;;;;;;;;;;;38.50;nan;102079.53;4984775;28;19960;-85
2023/06/11 11:57:12;;;;;;;;;;;;;;;38.49;nan;102087.13;4986373;28;20393;-86
2023/06/11 11:59:38;;;;;;;;;;;;;;;38.62;nan;102082.66;4979257;28;19965;-86
2023/06/11 12:02:04;;;;;;;;;;;;;;;38.79;nan;102085.78;4983376;28;19929;-85
2023/06/11 12:04:40;;;;;;;;;;;;;;;38.81;nan;102081.34;4980580;28;20413;-87
2023/06/11 12:07:06;;;;;;;;;;;;;;;38.84;nan;102079.72;4985076;28;19963;-86
2023/06/11 12:09:34;;;;;;;;;;;;;;;38.76;nan;102086.56;4983377;28;19922;-85
2023/06/11 12:12:00;;;;;;;;;;;;;;;38.71;nan;102087.03;4989811;28;20004;-83
2023/06/11 12:14:25;;;;;;;;;;;;;;;38.73;nan;102087.41;4983820;28;20818;-85
2023/06/11 12:16:51;;;;;;;;;;;;;;;38.79;nan;102085.78;4986133;28;19921;-85
2023/06/11 12:19:18;;;;;;;;;;;;;;;38.88;nan;102089.69;4978492;28;19918;-84
2023/06/11 12:21:43;;;;;;;;;;;;;;;38.89;nan;102076.47;4986949;28;19922;-83
2023/06/11 12:24:11;;;;;;;;;;;;;;;38.94;nan;102076.84;4981632;28;20023;-84
2023/06/11 12:26:37;;;;;;;;;;;;;;;39.03;nan;102078.38;4983082;28;20024;-84
2023/06/11 12:29:02;;;;;;;;;;;;;;;39.00;nan;102071.59;4979555;28;19926;-84
2023/06/11 12:31:27;;;;;;;;;;;;;;;39.04;nan;102069.56;4980477;28;20472;-84
2023/06/11 12:33:53;;;;;;;;;;;;;;;39.15;nan;102073.13;4981559;28;20451;-86
2023/06/11 12:36:18;;;;;;;;;;;;;;;39.18;nan;102057.47;4981571;28;20009;-84
2023/06/11 12:38:45;;;;;;;;;;;;;;;39.23;nan;102055.00;4979104;28;19937;-83
2023/06/11 12:41:10;;;;;;;;;;;;;;;39.28;nan;102062.97;4979196;28;19962;-84
2023/06/11 12:43:35;;;;;;;;;;;;;;;39.34;nan;102056.94;4982711;28;20081;-85
2023/06/11 12:46:01;;;;;;;;;;;;;;;39.54;nan;102043.91;4985671;28;20002;-85
2023/06/11 12:48:26;;;;;;;;;;;;;;;39.72;nan;102041.72;4998243;28;19921;-85
2023/06/11 12:50:52;;;;;;;;;;;;;;;39.76;nan;102039.66;4982195;28;19929;-86
2023/06/11 12:53:17;;;;;;;;;;;;;;;39.81;nan;102044.78;4981429;28;20341;-84